Time;durP1;ratioP1;P1;durP2;ratioP2;P2;SDS_P1;SDS_P2;PMS_P1;PMS_P2;Temp;Humidity;BMP_temperature;BMP_pressure;BME280_temperature;BME280_humidity;BME280_pressure;Samples;Min_cycle;Max_cycle;Signal;HPM_P1;HPM_P2
2021/06/26 00:00:04;;;;;;;9.00;6.85;;;18.20;99.90;;;;;;5127870;28;20163;-73
2021/06/26 00:02:29;;;;;;;8.73;6.50;;;18.20;99.90;;;;;;5110120;28;20174;-73
2021/06/26 00:04:55;;;;;;;8.43;6.40;;;18.10;99.90;;;;;;5128143;28;20159;-73
2021/06/26 00:07:21;;;;;;;8.23;6.13;;;18.10;99.90;;;;;;5125364;28;20458;-73
2021/06/26 00:09:46;;;;;;;8.20;6.90;;;18.10;99.90;;;;;;5109704;28;20220;-73
2021/06/26 00:12:12;;;;;;;7.18;6.47;;;18.00;99.90;;;;;;5128214;28;20174;-73
2021/06/26 00:14:38;;;;;;;9.63;6.78;;;18.00;99.90;;;;;;5127700;28;20670;-73
2021/06/26 00:17:03;;;;;;;7.72;7.00;;;18.10;99.90;;;;;;5126856;28;20159;-73
2021/06/26 00:19:30;;;;;;;8.85;7.65;;;18.30;99.90;;;;;;5107797;28;20196;-73
2021/06/26 00:21:55;;;;;;;8.38;7.13;;;18.40;99.90;;;;;;5127434;28;20636;-73
2021/06/26 00:24:21;;;;;;;10.50;6.95;;;18.40;99.90;;;;;;5109825;28;20159;-73
2021/06/26 00:26:47;;;;;;;6.82;6.13;;;18.40;99.90;;;;;;5127707;28;20170;-73
2021/06/26 00:29:12;;;;;;;10.57;7.32;;;18.30;99.90;;;;;;5124785;28;20175;-73
2021/06/26 00:31:38;;;;;;;7.57;6.88;;;18.30;99.90;;;;;;5127920;28;20640;-73
2021/06/26 00:34:03;;;;;;;7.70;7.00;;;18.20;99.90;;;;;;5127369;28;20595;-73
2021/06/26 00:36:29;;;;;;;7.57;6.85;;;18.30;99.90;;;;;;5127595;28;20621;-73
2021/06/26 00:38:55;;;;;;;7.75;7.03;;;18.40;99.90;;;;;;5124664;28;20664;-73
2021/06/26 00:41:20;;;;;;;11.57;7.22;;;18.40;99.90;;;;;;5127577;28;20162;-72
2021/06/26 00:43:46;;;;;;;8.05;7.25;;;18.40;99.90;;;;;;5127515;28;20181;-73
2021/06/26 00:46:11;;;;;;;9.52;7.53;;;18.60;99.90;;;;;;5127059;28;20682;-73
2021/06/26 00:48:37;;;;;;;10.65;7.82;;;18.60;99.90;;;;;;5124887;28;20168;-73
2021/06/26 00:51:03;;;;;;;12.25;7.72;;;18.50;99.90;;;;;;5109018;28;20313;-73
2021/06/26 00:53:29;;;;;;;7.88;7.13;;;18.60;99.90;;;;;;5127327;28;20190;-73
2021/06/26 00:55:55;;;;;;;8.48;7.68;;;18.50;99.90;;;;;;5108733;28;20161;-73
2021/06/26 00:58:22;;;;;;;9.50;7.22;;;18.40;99.90;;;;;;5124607;28;20162;-73
2021/06/26 01:00:48;;;;;;;8.43;7.32;;;18.20;99.90;;;;;;5126920;28;20219;-73
2021/06/26 01:03:14;;;;;;;7.32;6.63;;;18.20;99.90;;;;;;5127035;28;20170;-73
2021/06/26 01:05:40;;;;;;;7.78;7.00;;;18.10;99.90;;;;;;5108963;28;20659;-73
2021/06/26 01:08:06;;;;;;;8.68;6.75;;;18.00;99.90;;;;;;5124284;28;20214;-73
2021/06/26 01:10:32;;;;;;;8.65;6.88;;;18.00;99.90;;;;;;5127105;28;20162;-73
2021/06/26 01:12:58;;;;;;;8.00;7.20;;;18.00;99.90;;;;;;5126966;28;20194;-73
2021/06/26 01:15:24;;;;;;;9.10;7.78;;;18.00;99.90;;;;;;5126849;28;20171;-73
2021/06/26 01:17:49;;;;;;;10.45;7.13;;;18.00;99.90;;;;;;5124451;28;20178;-72
2021/06/26 01:20:16;;;;;;;7.93;7.10;;;18.00;99.90;;;;;;5126886;28;20158;-73
2021/06/26 01:22:48;;;;;;;9.07;6.93;;;18.00;99.90;;;;;;5108688;28;20166;-73
2021/06/26 01:25:16;;;;;;;7.30;6.65;;;18.00;99.90;;;;;;5126906;28;20716;-73
2021/06/26 01:27:43;;;;;;;11.95;7.53;;;18.00;99.90;;;;;;5124185;28;20174;-73
2021/06/26 01:30:11;;;;;;;11.27;6.95;;;18.00;99.90;;;;;;5126412;28;20174;-73
2021/06/26 01:32:37;;;;;;;10.00;7.47;;;18.00;99.90;;;;;;5126499;28;20190;-73
2021/06/26 01:35:05;;;;;;;8.32;7.40;;;18.00;99.90;;;;;;5108311;28;20167;-73
2021/06/26 01:37:31;;;;;;;9.55;6.35;;;18.10;99.90;;;;;;5123946;28;20155;-73
2021/06/26 01:39:57;;;;;;;6.95;6.07;;;18.00;99.90;;;;;;5126735;28;20162;-73
2021/06/26 01:42:23;;;;;;;10.00;6.85;;;18.00;99.90;;;;;;5108335;28;20167;-73
2021/06/26 01:44:49;;;;;;;8.13;6.75;;;17.90;99.90;;;;;;5126332;28;20177;-73
2021/06/26 01:47:14;;;;;;;6.10;5.60;;;17.90;99.90;;;;;;5124297;28;20158;-73
2021/06/26 01:49:40;;;;;;;8.93;5.78;;;17.90;99.90;;;;;;5126207;28;20170;-73
2021/06/26 01:52:09;;;;;;;7.78;6.30;;;17.90;99.90;;;;;;5108185;28;20195;-73
2021/06/26 01:54:38;;;;;;;6.30;5.43;;;17.90;99.90;;;;;;5126515;28;20645;-73
2021/06/26 01:57:07;;;;;;;6.18;5.57;;;18.00;99.90;;;;;;5125144;28;20707;-73
2021/06/26 01:59:33;;;;;;;8.15;6.30;;;18.00;99.90;;;;;;5106578;28;20162;-73
2021/06/26 02:01:58;;;;;;;6.93;6.32;;;18.10;99.90;;;;;;5126267;28;20170;-73
2021/06/26 02:04:24;;;;;;;11.35;5.88;;;18.20;99.90;;;;;;5126570;28;20189;-73
2021/06/26 02:06:49;;;;;;;11.00;7.03;;;18.30;99.90;;;;;;5126302;28;20210;-73
2021/06/26 02:09:15;;;;;;;12.93;7.18;;;18.40;99.90;;;;;;5105307;28;20658;-73
2021/06/26 02:11:41;;;;;;;9.45;7.63;;;18.40;99.90;;;;;;5126352;28;20190;-73
2021/06/26 02:14:07;;;;;;;10.15;7.45;;;18.40;99.90;;;;;;5126225;28;20190;-73
2021/06/26 02:16:32;;;;;;;10.13;7.22;;;18.30;99.90;;;;;;5126058;28;20171;-73
2021/06/26 02:18:58;;;;;;;9.27;7.25;;;18.30;99.90;;;;;;5123508;28;20163;-73
2021/06/26 02:21:24;;;;;;;9.10;8.10;;;18.30;99.90;;;;;;5125290;28;20400;-73
2021/06/26 02:23:50;;;;;;;7.53;6.82;;;18.40;99.90;;;;;;5126597;28;20643;-73
2021/06/26 02:26:16;;;;;;;10.40;7.00;;;18.30;99.90;;;;;;5126048;28;20159;-73
2021/06/26 02:28:41;;;;;;;8.05;6.68;;;18.10;99.90;;;;;;5123575;28;20232;-73
2021/06/26 02:31:07;;;;;;;6.88;6.25;;;18.10;99.90;;;;;;5125724;28;20204;-73
2021/06/26 02:33:32;;;;;;;9.18;6.43;;;18.00;99.90;;;;;;5126093;28;20190;-73
2021/06/26 02:35:58;;;;;;;7.43;6.63;;;18.20;99.90;;;;;;5107745;28;20167;-73
2021/06/26 02:38:24;;;;;;;7.20;6.47;;;18.30;99.90;;;;;;5123440;28;20162;-73
2021/06/26 02:40:49;;;;;;;10.50;6.13;;;18.30;99.90;;;;;;5126118;28;20155;-73
2021/06/26 02:43:15;;;;;;;7.97;6.38;;;18.30;99.90;;;;;;5126591;28;20166;-73
2021/06/26 02:45:41;;;;;;;7.40;6.22;;;18.30;99.90;;;;;;5129778;28;20171;-73
2021/06/26 02:48:06;;;;;;;7.45;5.95;;;18.20;99.90;;;;;;5127079;28;20167;-73
2021/06/26 02:50:32;;;;;;;6.65;6.05;;;18.10;99.90;;;;;;5111653;28;20166;-73
2021/06/26 02:52:58;;;;;;;6.60;5.80;;;18.00;99.90;;;;;;5129703;28;20198;-73
2021/06/26 02:55:24;;;;;;;6.28;5.65;;;18.10;99.90;;;;;;5129849;28;20170;-73
2021/06/26 02:57:49;;;;;;;6.45;5.95;;;18.20;99.90;;;;;;5126914;28;20163;-73
2021/06/26 03:00:15;;;;;;;7.63;5.25;;;18.20;99.90;;;;;;5129280;28;20234;-73
2021/06/26 03:02:41;;;;;;;6.47;5.88;;;18.20;99.90;;;;;;5129466;28;20163;-73
2021/06/26 03:05:08;;;;;;;7.30;5.82;;;18.20;99.90;;;;;;5111035;28;20191;-73
2021/06/26 03:07:33;;;;;;;7.03;6.32;;;18.10;99.90;;;;;;5126498;28;20418;-73
2021/06/26 03:09:59;;;;;;;7.25;6.63;;;18.10;99.90;;;;;;5129485;28;20159;-73
2021/06/26 03:12:24;;;;;;;9.10;6.47;;;18.10;99.90;;;;;;5129487;28;20163;-73
2021/06/26 03:14:50;;;;;;;9.10;7.13;;;18.00;99.90;;;;;;5129085;28;20171;-73
2021/06/26 03:17:16;;;;;;;9.02;6.82;;;18.30;99.90;;;;;;5126757;28;20155;-73
2021/06/26 03:19:41;;;;;;;12.57;6.75;;;18.30;99.90;;;;;;5110761;28;20215;-73
2021/06/26 03:22:07;;;;;;;8.90;6.53;;;18.30;99.90;;;;;;5110762;28;20163;-73
2021/06/26 03:24:33;;;;;;;7.38;6.45;;;18.30;99.90;;;;;;5129245;28;20166;-73
2021/06/26 03:26:58;;;;;;;7.80;7.00;;;18.30;99.90;;;;;;5110182;28;20225;-73
2021/06/26 03:29:24;;;;;;;11.43;6.43;;;18.20;99.90;;;;;;5127002;28;20163;-73
2021/06/26 03:31:50;;;;;;;9.63;6.70;;;18.30;99.90;;;;;;5110792;28;20538;-73
2021/06/26 03:34:16;;;;;;;12.48;6.20;;;18.40;99.90;;;;;;5129037;28;20193;-73
2021/06/26 03:36:42;;;;;;;7.63;6.13;;;18.30;99.90;;;;;;5128885;28;20155;-73
2021/06/26 03:39:08;;;;;;;13.63;5.97;;;18.40;99.90;;;;;;5125969;28;20163;-73
2021/06/26 03:41:34;;;;;;;7.80;5.28;;;18.30;99.90;;;;;;5128833;28;20182;-73
2021/06/26 03:44:01;;;;;;;9.40;6.03;;;18.20;99.90;;;;;;5128920;28;20163;-73
2021/06/26 03:46:27;;;;;;;7.15;5.57;;;18.20;99.90;;;;;;5127942;28;20202;-73
2021/06/26 03:48:53;;;;;;;8.35;5.82;;;18.20;99.90;;;;;;5125939;28;20171;-72
2021/06/26 03:51:19;;;;;;;10.25;5.47;;;18.30;99.90;;;;;;5110435;28;20169;-73
2021/06/26 03:53:46;;;;;;;6.15;5.28;;;18.10;99.90;;;;;;5128547;28;20644;-73
2021/06/26 03:56:12;;;;;;;6.18;5.43;;;18.00;99.90;;;;;;5128290;28;20155;-73
2021/06/26 03:58:38;;;;;;;5.80;4.95;;;18.00;99.90;;;;;;5125786;28;20241;-73
2021/06/26 04:01:04;;;;;;;5.90;5.22;;;18.30;99.90;;;;;;5127894;28;20616;-73
2021/06/26 04:03:29;;;;;;;6.68;5.07;;;18.30;99.90;;;;;;5128307;28;20239;-72
2021/06/26 04:05:55;;;;;;;8.90;5.40;;;18.30;99.90;;;;;;5128180;28;20174;-73
2021/06/26 04:08:21;;;;;;;7.75;5.20;;;18.20;99.90;;;;;;5125381;28;20220;-73
2021/06/26 04:10:46;;;;;;;6.10;5.60;;;18.00;99.90;;;;;;5110110;28;20166;-73
2021/06/26 04:13:12;;;;;;;9.60;4.75;;;17.90;99.90;;;;;;5109645;28;20187;-73
2021/06/26 04:15:38;;;;;;;6.10;5.10;;;17.90;99.90;;;;;;5127905;28;20181;-73
2021/06/26 04:18:04;;;;;;;5.45;4.90;;;18.20;99.90;;;;;;5125192;28;20151;-73
2021/06/26 04:20:30;;;;;;;7.65;5.10;;;18.20;99.90;;;;;;5109659;28;20521;-73
2021/06/26 04:22:56;;;;;;;6.18;5.32;;;18.20;99.90;;;;;;5127940;28;20229;-73
2021/06/26 04:25:21;;;;;;;5.70;5.00;;;18.30;99.90;;;;;;5128002;28;20166;-73
2021/06/26 04:27:47;;;;;;;5.93;5.40;;;18.30;99.90;;;;;;5125114;28;20159;-73
2021/06/26 04:30:14;;;;;;;7.60;4.95;;;18.30;99.90;;;;;;5127532;28;20181;-73
2021/06/26 04:32:40;;;;;;;7.90;5.80;;;18.20;99.90;;;;;;5109365;28;20277;-73
2021/06/26 04:35:09;;;;;;;7.50;5.25;;;18.30;99.90;;;;;;5127198;28;20159;-74
2021/06/26 04:37:35;;;;;;;6.32;5.32;;;18.20;99.90;;;;;;5106699;28;20162;-73
2021/06/26 04:40:01;;;;;;;6.03;5.15;;;18.20;99.90;;;;;;5127497;28;20161;-73
2021/06/26 04:42:27;;;;;;;6.15;5.60;;;18.00;99.90;;;;;;5127577;28;20158;-73
2021/06/26 04:44:52;;;;;;;7.20;4.88;;;17.90;99.90;;;;;;5127227;28;20159;-73
2021/06/26 04:47:18;;;;;;;6.70;5.32;;;17.80;99.90;;;;;;5106423;28;20404;-73
2021/06/26 04:49:44;;;;;;;5.68;5.10;;;17.80;99.90;;;;;;5127482;28;20676;-73
2021/06/26 04:52:10;;;;;;;5.43;4.85;;;17.80;99.90;;;;;;5127139;28;20162;-73
2021/06/26 04:54:36;;;;;;;7.97;5.43;;;17.80;99.90;;;;;;5127464;28;20223;-73
2021/06/26 04:57:01;;;;;;;6.97;5.93;;;17.80;99.90;;;;;;5126208;28;20190;-74
2021/06/26 04:59:27;;;;;;;9.60;5.65;;;17.90;99.90;;;;;;5125388;28;20212;-73
2021/06/26 05:01:53;;;;;;;6.10;5.60;;;18.00;99.90;;;;;;5126859;28;20182;-73
2021/06/26 05:04:19;;;;;;;7.43;5.40;;;18.10;99.90;;;;;;5109060;28;20608;-73
2021/06/26 05:06:45;;;;;;;6.45;5.85;;;18.10;99.90;;;;;;5126582;28;20286;-73
2021/06/26 05:09:11;;;;;;;6.43;5.82;;;18.10;99.90;;;;;;5124310;28;20179;-73
2021/06/26 05:11:36;;;;;;;7.28;6.68;;;18.00;99.90;;;;;;5108718;28;20166;-73
2021/06/26 05:14:02;;;;;;;6.13;5.63;;;18.10;99.90;;;;;;5108547;28;20276;-73
2021/06/26 05:16:28;;;;;;;6.88;6.18;;;18.20;99.90;;;;;;5126530;28;20170;-73
2021/06/26 05:18:53;;;;;;;8.32;7.53;;;18.30;99.90;;;;;;5124167;28;20170;-73
2021/06/26 05:21:19;;;;;;;7.82;7.00;;;18.40;99.90;;;;;;5126885;28;20184;-73
2021/06/26 05:23:45;;;;;;;7.10;6.40;;;18.50;99.90;;;;;;5127010;28;20159;-73
2021/06/26 05:26:11;;;;;;;7.32;6.63;;;18.40;99.90;;;;;;5108298;28;20165;-73
2021/06/26 05:28:37;;;;;;;7.90;6.95;;;18.50;99.90;;;;;;5124228;28;20184;-73
2021/06/26 05:31:04;;;;;;;7.88;7.05;;;18.50;99.90;;;;;;5126075;28;20175;-73
2021/06/26 05:33:30;;;;;;;8.80;7.10;;;18.70;99.90;;;;;;5126604;28;20201;-73
2021/06/26 05:35:56;;;;;;;7.68;6.47;;;18.70;99.90;;;;;;5108375;28;20170;-71
2021/06/26 05:38:21;;;;;;;7.03;5.90;;;18.90;99.90;;;;;;5123931;28;20177;-71
2021/06/26 05:40:47;;;;;;;7.93;6.07;;;18.80;99.90;;;;;;5108362;28;20159;-72
2021/06/26 05:43:13;;;;;;;8.18;6.93;;;18.80;99.90;;;;;;5126575;28;20303;-73
2021/06/26 05:45:39;;;;;;;7.07;6.25;;;19.10;99.90;;;;;;5126087;28;20174;-72
2021/06/26 05:48:05;;;;;;;7.13;6.45;;;19.20;99.90;;;;;;5123731;28;20237;-71
2021/06/26 05:50:31;;;;;;;6.00;5.40;;;19.10;99.90;;;;;;5126468;28;20174;-73
2021/06/26 05:52:57;;;;;;;7.45;5.80;;;19.00;99.90;;;;;;5126227;28;20187;-72
2021/06/26 05:55:24;;;;;;;6.20;5.57;;;18.80;99.90;;;;;;5108087;28;20205;-72
2021/06/26 05:57:50;;;;;;;5.47;4.97;;;18.80;99.90;;;;;;5123670;28;20163;-72
2021/06/26 06:00:17;;;;;;;5.55;5.15;;;18.60;99.90;;;;;;5125855;28;20214;-71
2021/06/26 06:02:44;;;;;;;5.30;4.80;;;18.60;99.90;;;;;;5126353;28;20174;-72
2021/06/26 06:05:12;;;;;;;6.65;4.63;;;18.90;99.90;;;;;;5126223;28;20193;-72
2021/06/26 06:07:38;;;;;;;5.70;5.13;;;18.90;99.90;;;;;;5123551;28;20225;-71
2021/06/26 06:10:06;;;;;;;7.72;5.47;;;18.90;99.90;;;;;;5126104;28;20167;-72
2021/06/26 06:12:33;;;;;;;5.20;4.80;;;18.70;99.90;;;;;;5126270;28;20169;-72
2021/06/26 06:14:59;;;;;;;5.15;4.75;;;18.60;99.90;;;;;;5125737;28;20557;-72
2021/06/26 06:17:24;;;;;;;5.93;5.38;;;18.50;99.90;;;;;;5123579;28;20155;-72
2021/06/26 06:19:50;;;;;;;5.35;4.88;;;18.50;99.90;;;;;;5129442;28;20254;-72
2021/06/26 06:22:16;;;;;;;7.07;4.40;;;18.50;99.90;;;;;;5111714;28;20155;-72
2021/06/26 06:24:42;;;;;;;4.25;3.92;;;18.70;99.90;;;;;;5111984;28;20192;-72
2021/06/26 06:27:07;;;;;;;4.40;4.00;;;18.80;99.90;;;;;;5128723;28;20162;-71
2021/06/26 06:29:33;;;;;;;4.07;3.75;;;18.90;99.90;;;;;;5128566;28;20162;-73
2021/06/26 06:31:59;;;;;;;4.38;3.97;;;18.90;99.90;;;;;;5111379;28;20204;-73
2021/06/26 06:34:25;;;;;;;3.92;3.60;;;18.90;99.90;;;;;;5129916;28;20197;-72
2021/06/26 06:36:50;;;;;;;3.65;3.35;;;18.80;99.90;;;;;;5129907;28;20315;-72
2021/06/26 06:39:16;;;;;;;3.60;3.30;;;18.70;99.90;;;;;;5108741;28;20167;-72
2021/06/26 06:41:42;;;;;;;3.50;3.20;;;18.70;99.90;;;;;;5129713;28;20158;-72
2021/06/26 06:44:07;;;;;;;3.40;3.10;;;18.60;99.90;;;;;;5129745;28;20166;-72
2021/06/26 06:46:33;;;;;;;4.57;3.05;;;18.50;99.90;;;;;;5129467;28;20170;-72
2021/06/26 06:48:59;;;;;;;3.38;3.08;;;18.60;99.90;;;;;;5126768;28;20448;-71
2021/06/26 06:51:24;;;;;;;3.50;3.20;;;18.60;99.90;;;;;;5111087;28;20158;-72
2021/06/26 06:53:50;;;;;;;2.80;2.60;;;18.70;99.90;;;;;;5129608;28;20194;-71
2021/06/26 06:56:15;;;;;;;3.65;3.05;;;18.80;99.90;;;;;;5129254;28;20172;-72
2021/06/26 06:58:41;;;;;;;3.40;2.45;;;19.20;99.90;;;;;;5126656;28;20169;-71
2021/06/26 07:01:07;;;;;;;2.88;2.60;;;19.30;99.90;;;;;;5128676;28;20171;-72
2021/06/26 07:03:32;;;;;;;2.70;2.50;;;19.40;99.90;;;;;;5110737;28;20226;-71
2021/06/26 07:05:58;;;;;;;3.92;2.25;;;19.60;99.90;;;;;;5129133;28;20170;-72
2021/06/26 07:08:24;;;;;;;2.50;2.20;;;19.70;99.90;;;;;;5126512;28;20545;-71
2021/06/26 07:10:49;;;;;;;2.47;2.25;;;19.90;99.90;;;;;;5129084;28;20161;-72
2021/06/26 07:13:15;;;;;;;2.90;1.90;;;20.10;99.90;;;;;;5110725;28;20289;-71
2021/06/26 07:15:41;;;;;;;1.92;1.83;;;20.20;99.90;;;;;;5110498;28;20261;-71
2021/06/26 07:18:07;;;;;;;1.90;1.70;;;20.40;99.90;;;;;;5107721;28;20159;-72
2021/06/26 07:20:32;;;;;;;3.70;1.67;;;20.40;99.90;;;;;;5128961;28;20182;-72
2021/06/26 07:22:58;;;;;;;1.50;1.40;;;20.20;99.90;;;;;;5128683;28;20272;-72
2021/06/26 07:25:24;;;;;;;1.65;1.50;;;20.20;99.90;;;;;;5128786;28;20186;-72
2021/06/26 07:27:50;;;;;;;2.00;1.80;;;20.20;99.90;;;;;;5126313;28;20187;-72
2021/06/26 07:30:16;;;;;;;2.47;1.88;;;20.10;99.90;;;;;;5127673;28;20250;-72
2021/06/26 07:32:44;;;;;;;1.90;1.77;;;19.80;99.90;;;;;;5128041;28;20210;-71
2021/06/26 07:35:10;;;;;;;2.20;2.08;;;19.70;99.90;;;;;;5128170;28;20232;-72
2021/06/26 07:37:35;;;;;;;1.95;1.80;;;20.10;99.90;;;;;;5125884;28;20177;-72
2021/06/26 07:40:01;;;;;;;3.33;2.38;;;20.40;99.90;;;;;;5128499;28;20582;-74
2021/06/26 07:42:27;;;;;;;2.90;2.08;;;20.40;99.90;;;;;;5128759;28;20207;-71
2021/06/26 07:44:52;;;;;;;2.57;2.37;;;20.30;99.90;;;;;;5109931;28;20419;-72
2021/06/26 07:47:18;;;;;;;2.50;2.30;;;20.10;99.90;;;;;;5126046;28;20500;-71
2021/06/26 07:49:43;;;;;;;2.58;2.38;;;20.00;99.90;;;;;;5128307;28;20691;-72
2021/06/26 07:52:09;;;;;;;2.92;2.40;;;20.30;99.90;;;;;;5128417;28;20182;-71
2021/06/26 07:54:35;;;;;;;2.63;2.42;;;20.10;99.90;;;;;;5128410;28;20254;-71
2021/06/26 07:57:00;;;;;;;5.45;3.50;;;20.00;99.90;;;;;;5127332;28;20151;-71
2021/06/26 07:59:26;;;;;;;3.58;3.28;;;19.90;99.90;;;;;;5126603;28;20600;-71
2021/06/26 08:01:51;;;;;;;2.97;2.78;;;19.70;99.90;;;;;;5127873;28;20540;-71
2021/06/26 08:04:19;;;;;;;6.15;3.88;;;19.60;99.90;;;;;;5127929;28;20192;-71
2021/06/26 08:06:45;;;;;;;4.47;3.38;;;19.80;99.90;;;;;;5127995;28;20238;-71
2021/06/26 08:09:10;;;;;;;4.43;3.60;;;19.90;99.90;;;;;;5124692;28;20163;-71
2021/06/26 08:11:36;;;;;;;3.95;3.38;;;20.00;99.90;;;;;;5108641;28;20162;-72
2021/06/26 08:14:02;;;;;;;4.63;4.22;;;20.00;99.90;;;;;;5126643;28;20246;-72
2021/06/26 08:16:28;;;;;;;7.07;4.70;;;19.80;99.90;;;;;;5126424;28;20163;-75
2021/06/26 08:18:54;;;;;;;7.93;6.57;;;19.70;99.90;;;;;;5124914;28;20170;-71
2021/06/26 08:21:20;;;;;;;7.97;6.60;;;19.70;99.90;;;;;;5127917;28;20162;-72
2021/06/26 08:23:47;;;;;;;6.53;5.90;;;19.70;99.90;;;;;;5127305;28;20166;-71
2021/06/26 08:26:13;;;;;;;8.20;7.10;;;19.80;99.90;;;;;;5127755;28;20169;-71
2021/06/26 08:28:38;;;;;;;11.70;8.13;;;19.80;99.90;;;;;;5125263;28;20167;-72
2021/06/26 08:31:04;;;;;;;13.80;8.85;;;19.80;99.90;;;;;;5127476;28;20204;-72
2021/06/26 08:33:29;;;;;;;18.45;12.40;;;19.90;99.90;;;;;;5127884;28;20199;-72
2021/06/26 08:35:55;;;;;;;19.02;13.60;;;19.80;99.90;;;;;;5127695;28;20170;-71
2021/06/26 08:38:21;;;;;;;21.30;12.95;;;20.00;99.90;;;;;;5124921;28;20208;-72
2021/06/26 08:40:52;;;;;;;14.25;11.68;;;20.00;99.90;;;;;;5127045;28;20181;-72
2021/06/26 08:43:18;;;;;;;14.35;11.77;;;20.20;99.90;;;;;;5127396;28;20524;-72
2021/06/26 08:45:43;;;;;;;14.25;10.57;;;20.00;99.90;;;;;;5108698;28;20171;-73
2021/06/26 08:48:09;;;;;;;17.27;11.05;;;19.80;99.90;;;;;;5124002;28;20177;-72
2021/06/26 08:50:35;;;;;;;14.50;10.73;;;19.70;99.90;;;;;;5109091;28;20252;-73
2021/06/26 08:53:01;;;;;;;13.68;10.63;;;19.90;99.90;;;;;;5127337;28;20194;-72
2021/06/26 08:55:27;;;;;;;11.00;9.40;;;20.00;99.90;;;;;;5127386;28;20676;-72
2021/06/26 08:57:52;;;;;;;15.90;11.60;;;20.00;99.90;;;;;;5106572;28;20530;-73
2021/06/26 09:00:23;;;;;;;18.17;13.50;;;19.90;99.90;;;;;;5108480;28;20170;-73
2021/06/26 09:02:49;;;;;;;21.48;14.13;;;19.80;99.90;;;;;;5127446;28;20166;-73
2021/06/26 09:05:28;;;;;;;20.55;14.10;;;19.80;99.90;;;;;;5127210;28;20231;-72
2021/06/26 09:07:54;;;;;;;20.50;13.43;;;19.90;99.90;;;;;;5124354;28;20206;-72
2021/06/26 09:10:21;;;;;;;21.92;14.95;;;19.90;99.90;;;;;;5127195;28;20178;-72
2021/06/26 09:12:50;;;;;;;20.67;15.48;;;20.10;99.90;;;;;;5126910;28;20186;-72
2021/06/26 09:15:22;;;;;;;22.05;15.63;;;20.10;99.90;;;;;;5126546;28;20167;-72
2021/06/26 09:17:48;;;;;;;15.02;10.98;;;20.30;99.90;;;;;;5124275;28;20167;-72
2021/06/26 09:20:14;;;;;;;11.45;9.00;;;20.40;99.90;;;;;;5126644;28;20165;-72
2021/06/26 09:22:41;;;;;;;11.30;9.43;;;20.50;99.90;;;;;;5126146;28;20223;-72
2021/06/26 09:25:25;;;;;;;16.38;10.65;;;20.40;99.90;;;;;;5126542;28;20155;-72
2021/06/26 09:27:51;;;;;;;14.93;11.10;;;20.40;99.90;;;;;;5105593;28;20549;-73
2021/06/26 09:30:18;;;;;;;15.57;11.52;;;20.40;99.90;;;;;;5126183;28;20174;-72
2021/06/26 09:32:48;;;;;;;20.05;12.93;;;20.70;99.90;;;;;;5126182;28;20190;-72
2021/06/26 09:35:17;;;;;;;23.20;13.73;;;20.80;99.90;;;;;;5126542;28;20155;-71
2021/06/26 09:37:43;;;;;;;26.25;16.80;;;21.20;99.90;;;;;;5123839;28;20196;-71
2021/06/26 09:40:12;;;;;;;20.60;14.85;;;21.90;99.90;;;;;;5126305;28;20192;-72
2021/06/26 09:42:39;;;;;;;19.38;12.73;;;22.50;99.90;;;;;;5126607;28;20155;-71
2021/06/26 09:45:10;;;;;;;21.10;14.73;;;22.20;99.90;;;;;;5126078;28;20161;-71
2021/06/26 09:47:39;;;;;;;22.95;17.83;;;22.60;99.90;;;;;;5123829;28;20154;-71
2021/06/26 09:50:20;;;;;;;22.05;19.23;;;22.80;99.90;;;;;;5107768;28;20179;-71
2021/06/26 09:52:53;;;;;;;27.48;21.08;;;23.00;99.90;;;;;;5126365;28;20186;-71
2021/06/26 09:55:33;;;;;;;24.20;20.33;;;23.30;99.90;;;;;;5125942;28;20155;-71
2021/06/26 09:58:11;;;;;;;27.08;19.95;;;23.50;99.90;;;;;;5123508;28;20163;-71
2021/06/26 10:00:37;;;;;;;28.88;21.67;;;23.50;99.90;;;;;;5125706;28;20162;-71
2021/06/26 10:03:04;;;;;;;26.88;22.00;;;23.50;99.90;;;;;;5126102;28;20162;-72
2021/06/26 10:05:31;;;;;;;27.40;23.13;;;23.80;99.90;;;;;;5126374;28;20226;-71
2021/06/26 10:07:59;;;;;;;29.15;23.40;;;24.10;99.90;;;;;;5123130;28;20211;-71
2021/06/26 10:10:25;;;;;;;29.40;23.40;;;24.20;99.90;;;;;;5126099;28;20204;-71
2021/06/26 10:12:53;;;;;;;26.52;22.27;;;24.00;99.90;;;;;;5126213;28;20178;-71
2021/06/26 10:15:22;;;;;;;28.88;23.88;;;23.60;99.90;;;;;;5126037;28;20216;-71
2021/06/26 10:17:49;;;;;;;26.38;21.08;;;23.90;99.90;;;;;;5123232;28;20163;-71
2021/06/26 10:20:17;;;;;;;32.45;23.42;;;23.90;99.90;;;;;;5124396;28;20159;-71
2021/06/26 10:22:46;;;;;;;25.73;21.52;;;23.60;99.90;;;;;;5126100;28;20175;-72
2021/06/26 10:25:13;;;;;;;29.45;22.85;;;23.50;99.90;;;;;;5124531;28;20414;-70
2021/06/26 10:27:39;;;;;;;30.45;23.10;;;23.90;99.90;;;;;;5122699;28;20181;-71
2021/06/26 10:30:23;;;;;;;28.88;24.02;;;24.40;99.90;;;;;;5124404;28;20183;-72
2021/06/26 10:33:05;;;;;;;27.83;23.00;;;24.30;99.90;;;;;;5125564;28;20198;-72
2021/06/26 10:35:34;;;;;;;30.15;23.48;;;24.30;99.90;;;;;;5125878;28;20167;-72
2021/06/26 10:38:03;;;;;;;29.55;22.92;;;24.80;99.90;;;;;;5122796;28;20523;-72
2021/06/26 10:40:38;;;;;;;29.13;23.20;;;24.60;99.90;;;;;;5125411;28;20178;-71
2021/06/26 10:43:29;;;;;;;32.80;23.25;;;24.60;99.90;;;;;;5107268;28;20166;-71
2021/06/26 10:46:10;;;;;;;35.88;23.77;;;24.50;99.90;;;;;;5125305;28;20258;-71
2021/06/26 10:48:37;;;;;;;33.80;24.17;;;24.30;99.90;;;;;;5123078;28;20159;-72
2021/06/26 10:51:03;;;;;;;35.15;24.52;;;24.30;99.90;;;;;;5125495;28;20174;-72
2021/06/26 10:53:38;;;;;;;28.50;23.40;;;24.60;99.90;;;;;;5125089;28;20198;-72
2021/06/26 10:56:07;;;;;;;29.55;23.83;;;25.20;99.90;;;;;;5125242;28;20158;-71
2021/06/26 10:58:39;;;;;;;32.92;22.52;;;25.50;99.90;;;;;;5122976;28;20186;-72
2021/06/26 11:01:22;;;;;;;28.33;22.38;;;25.10;99.90;;;;;;5124309;28;20162;-71
2021/06/26 11:03:51;;;;;;;34.47;22.75;;;24.60;99.90;;;;;;5125283;28;20178;-72
2021/06/26 11:06:27;;;;;;;26.27;21.48;;;24.90;99.90;;;;;;5128063;28;20162;-73
2021/06/26 11:09:00;;;;;;;28.65;22.08;;;25.10;99.90;;;;;;5126516;28;20193;-72
2021/06/26 11:11:34;;;;;;;27.20;22.38;;;25.20;99.90;;;;;;5129292;28;20209;-72
2021/06/26 11:14:10;;;;;;;24.83;21.45;;;25.00;99.90;;;;;;5129094;28;20186;-73
2021/06/26 11:16:37;;;;;;;28.95;21.98;;;25.30;99.90;;;;;;5128727;28;20173;-72
2021/06/26 11:19:03;;;;;;;24.02;18.17;;;25.60;99.90;;;;;;5125459;28;20212;-72
2021/06/26 11:21:36;;;;;;;27.35;19.73;;;25.50;99.90;;;;;;5128439;28;20166;-73
2021/06/26 11:24:01;;;;;;;27.30;20.75;;;25.30;99.90;;;;;;5128504;28;20170;-72
2021/06/26 11:26:27;;;;;;;25.40;20.80;;;25.10;99.90;;;;;;5128637;28;20655;-72
2021/06/26 11:28:53;;;;;;;25.00;21.00;;;25.10;99.90;;;;;;5126203;28;20167;-72
2021/06/26 11:31:18;;;;;;;23.15;19.90;;;24.90;99.90;;;;;;5128609;28;20556;-72
2021/06/26 11:33:44;;;;;;;27.80;20.05;;;24.80;99.90;;;;;;5128985;28;20277;-73
2021/06/26 11:36:12;;;;;;;26.27;21.00;;;24.90;99.90;;;;;;5128620;28;20171;-73
2021/06/26 11:38:38;;;;;;;24.67;19.95;;;24.70;99.90;;;;;;5125681;28;20159;-71
2021/06/26 11:41:11;;;;;;;30.42;22.17;;;24.70;99.90;;;;;;5128579;28;20159;-72
2021/06/26 11:43:38;;;;;;;25.35;20.33;;;25.10;99.90;;;;;;5128450;28;20169;-72
2021/06/26 11:46:05;;;;;;;25.83;20.13;;;24.40;99.90;;;;;;5128063;28;20178;-72
2021/06/26 11:48:31;;;;;;;28.48;20.23;;;24.40;99.90;;;;;;5125858;28;20188;-72
2021/06/26 11:51:05;;;;;;;25.67;19.45;;;24.60;99.90;;;;;;5128338;28;20175;-72
2021/06/26 11:53:31;;;;;;;25.40;19.83;;;24.80;99.90;;;;;;5127781;28;20186;-73
2021/06/26 11:56:00;;;;;;;25.92;18.95;;;25.50;99.90;;;;;;5127582;28;20501;-72
2021/06/26 11:58:46;;;;;;;26.58;20.77;;;25.10;99.90;;;;;;5125641;28;20155;-72
2021/06/26 12:01:35;;;;;;;30.80;20.35;;;24.90;99.90;;;;;;5127767;28;20219;-72
2021/06/26 12:04:02;;;;;;;23.08;18.83;;;25.00;99.90;;;;;;5128187;28;20166;-71
2021/06/26 12:06:32;;;;;;;22.30;19.40;;;24.80;99.90;;;;;;5128068;28;20166;-72
2021/06/26 12:08:59;;;;;;;24.10;18.63;;;24.70;99.90;;;;;;5106837;28;20251;-72
2021/06/26 12:11:30;;;;;;;25.58;17.75;;;24.60;99.90;;;;;;5128160;28;20167;-72
2021/06/26 12:13:58;;;;;;;24.08;17.67;;;24.60;99.90;;;;;;5127616;28;20272;-72
2021/06/26 12:16:27;;;;;;;23.45;17.85;;;25.00;99.90;;;;;;5127427;28;20171;-72
2021/06/26 12:19:00;;;;;;;20.92;18.27;;;25.60;99.90;;;;;;5124547;28;20165;-73
2021/06/26 12:21:46;;;;;;;21.17;16.85;;;26.00;99.90;;;;;;5127943;28;20166;-73
2021/06/26 12:24:25;;;;;;;23.50;17.95;;;26.00;99.90;;;;;;5127684;28;20263;-73
2021/06/26 12:27:11;;;;;;;19.80;16.25;;;26.50;99.90;;;;;;5126852;28;20169;-72
2021/06/26 12:29:39;;;;;;;23.20;15.40;;;26.20;99.90;;;;;;5126503;28;20175;-72
2021/06/26 12:32:05;;;;;;;18.48;16.00;;;26.00;99.90;;;;;;5126996;28;20166;-73
2021/06/26 12:34:31;;;;;;;17.85;15.50;;;26.00;99.90;;;;;;5127692;28;20243;-72
2021/06/26 12:36:59;;;;;;;17.65;15.00;;;25.70;99.90;;;;;;5127122;28;20246;-73
2021/06/26 12:39:33;;;;;;;19.02;15.27;;;25.60;99.90;;;;;;5124955;28;20540;-74